Terminal Aerodrome Forecast
Issued by NWS

Home | Current Version | Previous Version | Text Only | Print | Product List | Glossary Off
Versions: 1 2 3 4 5 6 7 8 9 10 11 12 13 14 15 16 17 18 19 20 21 22 23 24 25 26 27 28

000
FTUS43 KABR 211300 AAA
TAFMBG
TAF AMD
KMBG 211321Z 2113/2212 32010KT P6SM BKN015
      TEMPO 2113/2115 3SM BR BKN006
     FM211500 33010KT P6SM SCT035=

USA.gov is the U.S. government's official web portal to all federal, state and local government web resources and services.